sensor_id;sensor_type;location;lat;lon;timestamp;pressure;altitude;pressure_sealevel;temperature;humidity
39083;BME280;24834;44.444;26.098;2022-10-17T05:06:27;102319.00;;;10.88;
39083;BME280;24834;44.444;26.098;2022-10-17T05:13:34;102326.03;;;10.99;
39083;BME280;24834;44.444;26.098;2022-10-17T05:19:37;102333.66;;;11.24;
39083;BME280;24834;44.444;26.098;2022-10-17T05:25:42;102339.44;;;11.49;
39083;BME280;24834;44.444;26.098;2022-10-17T05:31:45;102339.69;;;11.64;
39083;BME280;24834;44.444;26.098;2022-10-17T05:37:47;102343.38;;;11.80;
39083;BME280;24834;44.444;26.098;2022-10-17T05:43:51;102349.47;;;11.97;
39083;BME280;24834;44.444;26.098;2022-10-17T05:50:02;102372.19;;;12.15;
39083;BME280;24834;44.444;26.098;2022-10-17T05:56:17;102368.03;;;12.35;
39083;BME280;24834;44.444;26.098;2022-10-17T06:02:23;102387.00;;;12.71;
39083;BME280;24834;44.444;26.098;2022-10-17T06:08:29;102386.59;;;13.00;
39083;BME280;24834;44.444;26.098;2022-10-17T06:14:33;102409.16;;;13.08;
39083;BME280;24834;44.444;26.098;2022-10-17T06:20:37;102410.13;;;13.24;
39083;BME280;24834;44.444;26.098;2022-10-17T06:26:48;102416.25;;;13.29;
39083;BME280;24834;44.444;26.098;2022-10-17T06:32:55;102417.91;;;13.57;
39083;BME280;24834;44.444;26.098;2022-10-17T06:38:57;102415.22;;;13.79;
39083;BME280;24834;44.444;26.098;2022-10-17T06:45:11;102419.22;;;13.81;
39083;BME280;24834;44.444;26.098;2022-10-17T06:51:26;102420.97;;;14.02;
39083;BME280;24834;44.444;26.098;2022-10-17T06:57:31;102430.69;;;14.29;
39083;BME280;24834;44.444;26.098;2022-10-17T07:03:54;102411.03;;;14.56;
39083;BME280;24834;44.444;26.098;2022-10-17T07:10:02;102417.31;;;14.92;
39083;BME280;24834;44.444;26.098;2022-10-17T07:16:11;102419.56;;;15.31;
39083;BME280;24834;44.444;26.098;2022-10-17T07:22:16;102428.94;;;15.63;
39083;BME280;24834;44.444;26.098;2022-10-17T07:28:21;102431.81;;;15.62;
39083;BME280;24834;44.444;26.098;2022-10-17T07:34:33;102432.66;;;15.98;
39083;BME280;24834;44.444;26.098;2022-10-17T07:40:37;102431.81;;;16.43;
39083;BME280;24834;44.444;26.098;2022-10-17T07:46:41;102434.44;;;16.53;
39083;BME280;24834;44.444;26.098;2022-10-17T07:52:46;102452.13;;;16.77;
39083;BME280;24834;44.444;26.098;2022-10-17T07:58:48;102439.59;;;16.93;
39083;BME280;24834;44.444;26.098;2022-10-17T08:04:52;102441.22;;;16.84;
39083;BME280;24834;44.444;26.098;2022-10-17T08:11:01;102436.09;;;17.41;
39083;BME280;24834;44.444;26.098;2022-10-17T08:17:05;102440.28;;;17.58;
39083;BME280;24834;44.444;26.098;2022-10-17T08:23:08;102432.34;;;17.52;
39083;BME280;24834;44.444;26.098;2022-10-17T08:29:14;102424.91;;;17.49;
39083;BME280;24834;44.444;26.098;2022-10-17T08:35:24;102420.81;;;17.62;
39083;BME280;24834;44.444;26.098;2022-10-17T08:42:01;102424.88;;;17.88;
39083;BME280;24834;44.444;26.098;2022-10-17T08:48:09;102419.72;;;17.97;
39083;BME280;24834;44.444;26.098;2022-10-17T08:54:42;102421.19;;;18.13;
39083;BME280;24834;44.444;26.098;2022-10-17T09:20:27;102429.84;;;18.47;
39083;BME280;24834;44.444;26.098;2022-10-17T09:26:31;102434.97;;;18.62;
39083;BME280;24834;44.444;26.098;2022-10-17T09:32:33;102429.84;;;18.47;
39083;BME280;24834;44.444;26.098;2022-10-17T09:38:55;102425.81;;;18.26;
39083;BME280;24834;44.444;26.098;2022-10-17T09:51:14;102423.28;;;18.82;
39083;BME280;24834;44.444;26.098;2022-10-17T09:57:27;102417.84;;;18.68;
39083;BME280;24834;44.444;26.098;2022-10-17T10:03:31;102410.50;;;18.79;
39083;BME280;24834;44.444;26.098;2022-10-17T10:09:37;102410.81;;;18.77;
39083;BME280;24834;44.444;26.098;2022-10-17T10:15:47;102398.97;;;18.84;
39083;BME280;24834;44.444;26.098;2022-10-17T10:28:09;102382.16;;;19.71;
39083;BME280;24834;44.444;26.098;2022-10-17T10:34:16;102376.69;;;19.76;
39083;BME280;24834;44.444;26.098;2022-10-17T10:40:46;102372.63;;;19.79;
39083;BME280;24834;44.444;26.098;2022-10-17T10:47:29;102359.69;;;20.13;
39083;BME280;24834;44.444;26.098;2022-10-17T11:00:03;102349.44;;;20.56;
39083;BME280;24834;44.444;26.098;2022-10-17T11:06:27;102340.56;;;20.91;
39083;BME280;24834;44.444;26.098;2022-10-17T11:12:34;102334.88;;;21.46;
39083;BME280;24834;44.444;26.098;2022-10-17T11:18:51;102334.28;;;21.66;
39083;BME280;24834;44.444;26.098;2022-10-17T11:25:05;102324.22;;;21.63;
39083;BME280;24834;44.444;26.098;2022-10-17T11:31:16;102319.06;;;21.75;
39083;BME280;24834;44.444;26.098;2022-10-17T11:37:27;102301.63;;;22.03;
39083;BME280;24834;44.444;26.098;2022-10-17T11:43:39;102299.41;;;21.88;
39083;BME280;24834;44.444;26.098;2022-10-17T11:50:30;102297.22;;;21.33;
39083;BME280;24834;44.444;26.098;2022-10-17T12:02:59;102291.19;;;21.76;
39083;BME280;24834;44.444;26.098;2022-10-17T12:21:21;102263.72;;;21.62;
39083;BME280;24834;44.444;26.098;2022-10-17T12:27:44;102272.19;;;21.47;
39083;BME280;24834;44.444;26.098;2022-10-17T12:33:56;102271.44;;;21.63;
39083;BME280;24834;44.444;26.098;2022-10-17T12:39:59;102272.47;;;22.01;
39083;BME280;24834;44.444;26.098;2022-10-17T12:46:03;102267.56;;;22.29;
39083;BME280;24834;44.444;26.098;2022-10-17T12:58:17;102262.84;;;21.92;
39083;BME280;24834;44.444;26.098;2022-10-17T13:04:21;102265.34;;;21.97;
39083;BME280;24834;44.444;26.098;2022-10-17T13:10:28;102267.75;;;22.07;
39083;BME280;24834;44.444;26.098;2022-10-17T13:22:34;102257.03;;;22.16;
39083;BME280;24834;44.444;26.098;2022-10-17T13:28:36;102263.97;;;21.99;
39083;BME280;24834;44.444;26.098;2022-10-17T13:34:40;102270.25;;;22.03;
39083;BME280;24834;44.444;26.098;2022-10-17T13:40:43;102279.72;;;22.01;
39083;BME280;24834;44.444;26.098;2022-10-17T13:46:51;102278.13;;;21.83;
39083;BME280;24834;44.444;26.098;2022-10-17T13:59:23;102282.91;;;21.55;
39083;BME280;24834;44.444;26.098;2022-10-17T14:05:26;102285.91;;;21.54;
39083;BME280;24834;44.444;26.098;2022-10-17T14:11:39;102281.59;;;21.35;
39083;BME280;24834;44.444;26.098;2022-10-17T14:17:44;102272.59;;;21.23;
39083;BME280;24834;44.444;26.098;2022-10-17T14:23:50;102266.22;;;21.10;
39083;BME280;24834;44.444;26.098;2022-10-17T14:29:55;102275.28;;;20.92;
39083;BME280;24834;44.444;26.098;2022-10-17T14:36:03;102272.69;;;20.87;
39083;BME280;24834;44.444;26.098;2022-10-17T14:42:19;102285.59;;;20.63;
39083;BME280;24834;44.444;26.098;2022-10-17T14:48:23;102282.84;;;20.68;
39083;BME280;24834;44.444;26.098;2022-10-17T14:54:26;102280.25;;;20.63;
39083;BME280;24834;44.444;26.098;2022-10-17T15:00:30;102280.63;;;20.48;
39083;BME280;24834;44.444;26.098;2022-10-17T15:06:33;102277.41;;;20.37;
39083;BME280;24834;44.444;26.098;2022-10-17T15:12:36;102280.41;;;20.22;
39083;BME280;24834;44.444;26.098;2022-10-17T15:18:38;102282.78;;;20.10;
39083;BME280;24834;44.444;26.098;2022-10-17T15:24:40;102279.84;;;19.98;
39083;BME280;24834;44.444;26.098;2022-10-17T15:30:43;102287.41;;;19.82;
39083;BME280;24834;44.444;26.098;2022-10-17T15:36:49;102291.38;;;19.71;
39083;BME280;24834;44.444;26.098;2022-10-17T15:42:52;102304.59;;;19.63;
39083;BME280;24834;44.444;26.098;2022-10-17T15:48:55;102305.75;;;19.43;
39083;BME280;24834;44.444;26.098;2022-10-17T15:54:57;102310.69;;;19.36;
39083;BME280;24834;44.444;26.098;2022-10-17T16:01:05;102312.16;;;19.28;
39083;BME280;24834;44.444;26.098;2022-10-17T16:07:08;102311.53;;;19.18;
39083;BME280;24834;44.444;26.098;2022-10-17T16:13:16;102322.94;;;19.05;
39083;BME280;24834;44.444;26.098;2022-10-17T16:19:18;102336.44;;;18.95;
39083;BME280;24834;44.444;26.098;2022-10-17T16:25:26;102335.78;;;18.84;
39083;BME280;24834;44.444;26.098;2022-10-17T16:31:36;102340.72;;;18.77;
39083;BME280;24834;44.444;26.098;2022-10-17T16:37:40;102342.13;;;18.69;
39083;BME280;24834;44.444;26.098;2022-10-17T16:43:42;102345.94;;;18.63;
39083;BME280;24834;44.444;26.098;2022-10-17T16:49:47;102351.16;;;18.55;
39083;BME280;24834;44.444;26.098;2022-10-17T16:56:03;102346.88;;;18.35;
39083;BME280;24834;44.444;26.098;2022-10-17T17:02:05;102353.78;;;18.36;
39083;BME280;24834;44.444;26.098;2022-10-17T17:08:07;102352.25;;;18.30;
39083;BME280;24834;44.444;26.098;2022-10-17T17:14:13;102357.69;;;18.20;
39083;BME280;24834;44.444;26.098;2022-10-17T17:20:15;102362.81;;;18.16;
39083;BME280;24834;44.444;26.098;2022-10-17T17:26:20;102366.31;;;18.12;
39083;BME280;24834;44.444;26.098;2022-10-17T17:32:23;102361.06;;;18.07;
39083;BME280;24834;44.444;26.098;2022-10-17T17:38:30;102359.34;;;17.92;
39083;BME280;24834;44.444;26.098;2022-10-17T17:44:33;102361.19;;;17.92;
39083;BME280;24834;44.444;26.098;2022-10-17T17:50:36;102366.06;;;17.85;
39083;BME280;24834;44.444;26.098;2022-10-17T17:56:38;102360.84;;;17.75;
39083;BME280;24834;44.444;26.098;2022-10-17T18:02:40;102367.50;;;17.72;
39083;BME280;24834;44.444;26.098;2022-10-17T18:08:56;102367.34;;;17.64;
39083;BME280;24834;44.444;26.098;2022-10-17T18:15:02;102369.50;;;17.56;
39083;BME280;24834;44.444;26.098;2022-10-17T18:21:07;102375.03;;;17.31;
39083;BME280;24834;44.444;26.098;2022-10-17T18:27:10;102381.69;;;17.34;
39083;BME280;24834;44.444;26.098;2022-10-17T18:33:16;102374.28;;;17.26;
39083;BME280;24834;44.444;26.098;2022-10-17T18:39:18;102379.94;;;17.14;
39083;BME280;24834;44.444;26.098;2022-10-17T18:45:22;102377.34;;;17.04;
39083;BME280;24834;44.444;26.098;2022-10-17T18:51:25;102376.31;;;17.00;
39083;BME280;24834;44.444;26.098;2022-10-17T18:57:27;102377.94;;;16.96;
39083;BME280;24834;44.444;26.098;2022-10-17T19:03:29;102382.50;;;16.80;
39083;BME280;24834;44.444;26.098;2022-10-17T19:09:33;102386.25;;;16.79;
39083;BME280;24834;44.444;26.098;2022-10-17T19:15:35;102396.38;;;16.72;
39083;BME280;24834;44.444;26.098;2022-10-17T19:21:38;102392.91;;;16.72;
39083;BME280;24834;44.444;26.098;2022-10-17T19:27:41;102409.41;;;16.64;
39083;BME280;24834;44.444;26.098;2022-10-17T19:33:43;102407.59;;;16.59;
39083;BME280;24834;44.444;26.098;2022-10-17T19:39:47;102414.78;;;16.54;
39083;BME280;24834;44.444;26.098;2022-10-17T19:46:00;102411.06;;;16.50;
39083;BME280;24834;44.444;26.098;2022-10-17T19:52:02;102417.72;;;16.32;
39083;BME280;24834;44.444;26.098;2022-10-17T19:58:04;102411.09;;;16.19;
39083;BME280;24834;44.444;26.098;2022-10-17T20:04:08;102415.91;;;16.22;
39083;BME280;24834;44.444;26.098;2022-10-17T20:10:13;102423.88;;;16.22;
39083;BME280;24834;44.444;26.098;2022-10-17T20:16:18;102413.75;;;16.19;
39083;BME280;24834;44.444;26.098;2022-10-17T20:22:24;102413.28;;;16.12;
39083;BME280;24834;44.444;26.098;2022-10-17T20:28:26;102414.34;;;16.11;
39083;BME280;24834;44.444;26.098;2022-10-17T20:34:28;102418.59;;;16.02;
39083;BME280;24834;44.444;26.098;2022-10-17T20:40:37;102404.53;;;15.92;
39083;BME280;24834;44.444;26.098;2022-10-17T20:46:41;102414.06;;;15.93;
39083;BME280;24834;44.444;26.098;2022-10-17T20:52:58;102407.72;;;15.89;
39083;BME280;24834;44.444;26.098;2022-10-17T20:59:20;102405.84;;;15.74;
39083;BME280;24834;44.444;26.098;2022-10-17T21:05:22;102405.31;;;15.57;
39083;BME280;24834;44.444;26.098;2022-10-17T21:11:26;102403.94;;;15.44;
39083;BME280;24834;44.444;26.098;2022-10-17T21:17:28;102394.91;;;15.35;
39083;BME280;24834;44.444;26.098;2022-10-17T21:23:32;102394.09;;;15.14;
39083;BME280;24834;44.444;26.098;2022-10-17T21:29:35;102389.13;;;14.71;
39083;BME280;24834;44.444;26.098;2022-10-17T21:35:37;102393.03;;;14.53;
39083;BME280;24834;44.444;26.098;2022-10-17T21:41:44;102390.16;;;14.60;
39083;BME280;24834;44.444;26.098;2022-10-17T21:47:49;102395.84;;;14.37;
39083;BME280;24834;44.444;26.098;2022-10-17T21:54:11;102394.31;;;14.09;
39083;BME280;24834;44.444;26.098;2022-10-17T22:00:13;102382.28;;;13.91;
39083;BME280;24834;44.444;26.098;2022-10-17T22:06:19;102399.31;;;14.05;
39083;BME280;24834;44.444;26.098;2022-10-17T22:12:41;102391.84;;;13.97;
39083;BME280;24834;44.444;26.098;2022-10-17T22:18:43;102392.66;;;13.71;
39083;BME280;24834;44.444;26.098;2022-10-17T22:24:45;102385.69;;;13.60;
39083;BME280;24834;44.444;26.098;2022-10-17T22:30:47;102379.63;;;13.65;
39083;BME280;24834;44.444;26.098;2022-10-17T22:36:49;102380.97;;;13.67;
39083;BME280;24834;44.444;26.098;2022-10-17T22:42:51;102369.84;;;13.60;
39083;BME280;24834;44.444;26.098;2022-10-17T22:48:54;102373.06;;;13.67;
39083;BME280;24834;44.444;26.098;2022-10-17T22:54:56;102366.91;;;13.62;
39083;BME280;24834;44.444;26.098;2022-10-17T23:00:59;102365.63;;;13.64;
39083;BME280;24834;44.444;26.098;2022-10-17T23:07:01;102366.09;;;13.56;
39083;BME280;24834;44.444;26.098;2022-10-17T23:13:04;102369.97;;;13.48;
39083;BME280;24834;44.444;26.098;2022-10-17T23:19:07;102363.41;;;13.29;
39083;BME280;24834;44.444;26.098;2022-10-17T23:25:09;102365.63;;;13.37;
39083;BME280;24834;44.444;26.098;2022-10-17T23:31:17;102357.53;;;13.49;
39083;BME280;24834;44.444;26.098;2022-10-17T23:37:20;102362.41;;;13.35;
39083;BME280;24834;44.444;26.098;2022-10-17T23:43:22;102361.34;;;13.31;
39083;BME280;24834;44.444;26.098;2022-10-17T23:49:24;102351.53;;;13.27;
39083;BME280;24834;44.444;26.098;2022-10-17T23:55:26;102351.56;;;13.32;
